Time;durP1;ratioP1;P1;durP2;ratioP2;P2;SDS_P1;SDS_P2;PMS_P1;PMS_P2;Temp;Humidity;BMP_temperature;BMP_pressure;BME280_temperature;BME280_humidity;BME280_pressure;Samples;Min_cycle;Max_cycle;Signal;HPM_P1;HPM_P2
2022/02/11 00:06:19;;;;;;;4.40;2.40;;;11.50;89.10;;;;;;5059187;28;20025;-76
2022/02/11 00:08:42;;;;;;;7.65;2.85;;;11.50;89.10;;;;;;5057517;28;20386;-78
2022/02/11 00:11:07;;;;;;;6.93;2.60;;;11.50;89.60;;;;;;5038404;28;20166;-78
2022/02/11 00:13:33;;;;;;;5.72;2.45;;;11.50;89.00;;;;;;5056644;28;20492;-78
2022/02/11 00:15:59;;;;;;;5.13;2.72;;;11.50;89.00;;;;;;5056606;28;20029;-78
2022/02/11 00:18:24;;;;;;;4.75;2.50;;;11.50;89.00;;;;;;5056837;28;20023;-79
2022/02/11 00:20:51;;;;;;;6.57;2.75;;;11.50;89.00;;;;;;5056131;28;20024;-78
2022/02/11 00:23:19;;;;;;;5.10;2.75;;;11.40;88.90;;;;;;5038291;28;20029;-77
2022/02/11 00:25:52;;;;;;;7.13;3.13;;;11.50;89.00;;;;;;5054942;28;20381;-78
2022/02/11 00:33:51;;;;;;;4.70;2.30;;;11.50;88.90;;;;;;5061273;28;20074;-78
2022/02/11 00:36:18;;;;;;;5.60;2.80;;;11.40;88.90;;;;;;5041633;28;20055;-79
2022/02/11 00:39:01;;;;;;;5.60;2.83;;;11.50;89.00;;;;;;5042120;28;20108;-78
2022/02/11 00:45:15;;;;;;;5.13;2.75;;;11.40;88.90;;;;;;5055992;28;20032;-78
2022/02/11 00:47:24;;;;;;;4.88;2.85;;;11.50;88.80;;;;;;5055526;28;20017;-78
2022/02/11 01:04:03;;;;;;;5.55;2.58;;;11.40;88.70;;;;;;5075053;28;20040;-77
2022/02/11 01:06:21;;;;;;;5.30;3.03;;;11.40;88.70;;;;;;5052527;28;20064;-79
2022/02/11 01:08:46;;;;;;;5.70;2.75;;;11.40;88.70;;;;;;5045881;28;20021;-78
2022/02/11 01:11:18;;;;;;;5.15;2.70;;;11.40;88.70;;;;;;5056742;28;20024;-77
2022/02/11 01:13:44;;;;;;;6.53;3.00;;;11.40;88.70;;;;;;5075876;28;20016;-78
2022/02/11 01:16:15;;;;;;;5.82;2.90;;;11.40;88.70;;;;;;5056687;28;20021;-78
2022/02/11 01:18:47;;;;;;;5.80;2.80;;;11.40;88.70;;;;;;5056942;28;20137;-78
2022/02/11 01:21:21;;;;;;;5.75;2.70;;;11.40;88.60;;;;;;5057072;28;20023;-78
2022/02/11 01:27:01;;;;;;;7.88;3.20;;;11.40;88.60;;;;;;5074699;28;20035;-78
2022/02/11 01:32:17;;;;;;;5.25;2.60;;;11.40;88.70;;;;;;5074819;28;20021;-78
2022/02/11 01:35:09;;;;;;;6.05;3.08;;;11.40;88.70;;;;;;5074995;28;20543;-78
2022/02/11 01:37:49;;;;;;;6.18;3.05;;;11.40;88.60;;;;;;5058962;28;20112;-79
2022/02/11 01:51:15;;;;;;;5.07;2.70;;;11.40;88.60;;;;;;5074388;28;20537;-77
2022/02/11 01:56:15;;;;;;;5.85;3.05;;;11.40;88.60;;;;;;5074462;28;20099;-78
2022/02/11 02:01:51;;;;;;;5.38;2.90;;;11.30;88.50;;;;;;5071817;28;20454;-78
2022/02/11 02:28:50;;;;;;;5.32;2.88;;;11.30;88.20;;;;;;5059229;28;20055;-78
2022/02/11 02:43:22;;;;;;;6.78;2.80;;;11.30;88.30;;;;;;5067073;28;20051;-79
2022/02/11 02:58:24;;;;;;;6.38;3.20;;;11.30;88.10;;;;;;5073771;28;20039;-78
2022/02/11 03:01:11;;;;;;;5.65;3.30;;;11.30;88.20;;;;;;5073175;28;20099;-78
2022/02/11 03:17:49;;;;;;;7.35;3.70;;;11.30;88.10;;;;;;5056166;28;20347;-78
2022/02/11 03:58:10;;;;;;;5.47;3.58;;;11.30;88.00;;;;;;5055547;28;20024;-76
2022/02/11 04:20:28;;;;;;;7.53;4.28;;;11.30;87.90;;;;;;5054972;28;20028;-74
2022/02/11 04:53:32;;;;;;;8.05;4.85;;;11.20;87.20;;;;;;5030891;28;20036;-75
2022/02/11 04:55:37;;;;;;;7.90;5.15;;;11.20;87.30;;;;;;5045322;28;20040;-74
2022/02/11 05:00:48;;;;;;;8.18;5.32;;;11.20;87.40;;;;;;5053767;28;20028;-75
2022/02/11 05:03:14;;;;;;;7.25;5.13;;;11.20;87.40;;;;;;5036393;28;20021;-75
2022/02/11 05:05:49;;;;;;;8.43;5.28;;;11.20;87.40;;;;;;5054426;28;20017;-75
2022/02/11 05:08:27;;;;;;;8.40;5.47;;;11.20;87.30;;;;;;5036509;28;20371;-74
2022/02/11 05:10:55;;;;;;;7.75;5.22;;;11.20;87.30;;;;;;5054082;28;20498;-74
2022/02/11 05:13:21;;;;;;;7.85;5.40;;;11.20;87.20;;;;;;5054108;28;20017;-74
2022/02/11 05:15:47;;;;;;;7.95;5.57;;;11.20;87.30;;;;;;5035969;28;20025;-75
2022/02/11 05:18:14;;;;;;;8.02;4.85;;;11.20;87.30;;;;;;5036179;28;20367;-76
2022/02/11 05:20:43;;;;;;;7.88;5.00;;;11.20;87.20;;;;;;5053252;28;20358;-75
2022/02/11 05:23:12;;;;;;;8.88;5.40;;;11.20;87.30;;;;;;5036247;28;20120;-75
2022/02/11 05:25:39;;;;;;;7.47;4.97;;;11.20;87.30;;;;;;5053984;28;20067;-75
2022/02/11 05:28:06;;;;;;;7.35;5.20;;;11.20;87.30;;;;;;5035879;28;20020;-74
2022/02/11 05:30:33;;;;;;;8.77;5.35;;;11.20;87.30;;;;;;5022938;28;20063;-76
2022/02/11 05:33:00;;;;;;;7.65;4.90;;;11.20;87.30;;;;;;5037836;28;20033;-75
2022/02/11 05:35:26;;;;;;;7.40;5.20;;;11.20;87.50;;;;;;5034832;28;20017;-74
2022/02/11 05:37:51;;;;;;;7.45;5.03;;;11.20;87.30;;;;;;5030038;28;20032;-74
2022/02/11 05:40:17;;;;;;;8.20;5.28;;;11.20;87.30;;;;;;5041680;28;20029;-75
2022/02/11 05:42:42;;;;;;;8.02;5.28;;;11.20;87.20;;;;;;5053451;28;20078;-75
2022/02/11 05:45:09;;;;;;;8.43;5.40;;;11.20;87.30;;;;;;5040208;28;20029;-74
2022/02/11 05:47:35;;;;;;;6.88;4.80;;;11.20;87.30;;;;;;5053601;28;20043;-75
2022/02/11 05:50:03;;;;;;;8.18;5.75;;;11.20;87.30;;;;;;5035461;28;20501;-75
2022/02/11 05:52:29;;;;;;;7.35;4.97;;;11.20;87.40;;;;;;5035628;28;20021;-75
2022/02/11 05:54:55;;;;;;;7.28;5.00;;;11.20;87.40;;;;;;5053585;28;20664;-76
2022/02/11 05:57:20;;;;;;;7.32;5.05;;;11.20;87.60;;;;;;5031810;28;20067;-75
2022/02/11 05:59:46;;;;;;;7.28;5.07;;;11.20;87.40;;;;;;5049249;28;20094;-75
2022/02/11 06:02:11;;;;;;;8.68;5.55;;;11.20;87.50;;;;;;5045066;28;20032;-76
2022/02/11 06:04:37;;;;;;;7.53;5.20;;;11.20;87.50;;;;;;5026681;28;20025;-76
2022/02/11 06:07:03;;;;;;;7.70;5.53;;;11.20;87.60;;;;;;5038256;28;20056;-77
2022/02/11 06:09:29;;;;;;;8.82;5.60;;;11.20;87.60;;;;;;5046120;28;20489;-79
2022/02/11 06:11:55;;;;;;;7.90;5.28;;;11.20;87.50;;;;;;5030456;28;20037;-76
2022/02/11 06:14:20;;;;;;;6.82;4.78;;;11.20;87.50;;;;;;5031986;28;20498;-77
2022/02/11 06:16:46;;;;;;;7.90;5.43;;;11.20;87.60;;;;;;5050982;28;20116;-76
2022/02/11 06:19:11;;;;;;;9.00;5.40;;;11.20;87.50;;;;;;5033492;28;20040;-77
2022/02/11 06:21:37;;;;;;;8.15;5.10;;;11.20;87.60;;;;;;5046711;28;20065;-76
2022/02/11 06:24:02;;;;;;;7.57;5.05;;;11.20;87.60;;;;;;5070446;28;20032;-76
2022/02/11 06:26:28;;;;;;;8.40;5.70;;;11.20;87.50;;;;;;5047151;28;20025;-75
2022/02/11 06:28:55;;;;;;;7.70;5.13;;;11.20;87.40;;;;;;5049968;28;20588;-75
2022/02/11 06:31:22;;;;;;;7.85;5.43;;;11.20;87.90;;;;;;5032218;28;20030;-74
2022/02/11 06:33:48;;;;;;;7.53;5.10;;;11.20;87.50;;;;;;5050196;28;20025;-77
2022/02/11 06:36:14;;;;;;;8.05;5.43;;;11.10;87.50;;;;;;5050114;28;20055;-76
2022/02/11 06:38:40;;;;;;;8.23;5.43;;;11.20;87.40;;;;;;5050393;28;20035;-75
2022/02/11 06:41:05;;;;;;;7.18;5.40;;;11.10;87.30;;;;;;5031246;28;20036;-78
2022/02/11 06:43:31;;;;;;;8.32;5.20;;;11.20;87.40;;;;;;5050191;28;20716;-76
2022/02/11 06:45:57;;;;;;;9.18;5.55;;;11.10;87.40;;;;;;5031723;28;20025;-76
2022/02/11 06:48:24;;;;;;;7.75;4.95;;;11.20;87.50;;;;;;5049611;28;20033;-75
2022/02/11 06:50:51;;;;;;;8.95;5.25;;;11.20;87.50;;;;;;5031487;28;20099;-75
2022/02/11 06:53:17;;;;;;;10.95;6.07;;;11.20;87.40;;;;;;5049059;28;20029;-76
2022/02/11 06:55:42;;;;;;;20.00;6.53;;;11.10;85.20;;;;;;5033372;28;20751;-75
2022/02/11 06:58:08;;;;;;;12.18;5.93;;;11.00;83.90;;;;;;5063453;28;20452;-76
2022/02/11 07:00:34;;;;;;;12.73;6.00;;;10.90;83.50;;;;;;5060324;28;20033;-76
2022/02/11 07:03:00;;;;;;;11.27;5.70;;;10.90;83.30;;;;;;5040483;28;20084;-76
2022/02/11 07:05:27;;;;;;;10.15;5.57;;;10.80;83.20;;;;;;5032137;28;20427;-75
2022/02/11 07:07:54;;;;;;;10.77;5.03;;;10.80;83.10;;;;;;5030735;28;20120;-77
2022/02/11 07:10:20;;;;;;;12.95;5.95;;;10.80;83.10;;;;;;5048258;28;20025;-75
2022/02/11 07:12:45;;;;;;;11.57;5.07;;;10.80;83.10;;;;;;5030669;28;20082;-75
2022/02/11 07:15:11;;;;;;;10.25;4.97;;;10.80;83.00;;;;;;5030893;28;20025;-75
2022/02/11 07:17:37;;;;;;;10.52;4.80;;;10.80;82.90;;;;;;5049062;28;20275;-75
2022/02/11 07:20:05;;;;;;;9.93;4.82;;;10.80;82.80;;;;;;5035498;28;20140;-75
2022/02/11 07:22:34;;;;;;;8.02;4.30;;;10.70;82.80;;;;;;5048095;28;20032;-76
2022/02/11 07:25:01;;;;;;;8.23;4.07;;;10.70;82.70;;;;;;5036724;28;20516;-74
2022/02/11 07:27:27;;;;;;;7.78;3.92;;;10.70;82.70;;;;;;5030891;28;20501;-76
2022/02/11 07:29:52;;;;;;;9.73;4.35;;;10.70;82.70;;;;;;5047849;28;20022;-75
2022/02/11 07:32:18;;;;;;;16.27;4.70;;;10.70;82.70;;;;;;5047865;28;20041;-75
2022/02/11 07:34:45;;;;;;;13.00;4.35;;;10.80;83.70;;;;;;5048745;28;20025;-75
2022/02/11 07:37:11;;;;;;;17.42;4.80;;;10.90;83.90;;;;;;5046229;28;20029;-75
2022/02/11 07:39:36;;;;;;;10.55;4.68;;;10.90;84.00;;;;;;5046466;28;20031;-75
2022/02/11 07:42:02;;;;;;;10.63;4.45;;;11.00;84.10;;;;;;5046949;28;20061;-75
2022/02/11 07:44:27;;;;;;;15.45;4.20;;;11.10;84.40;;;;;;5046843;28;20460;-75
2022/02/11 07:46:53;;;;;;;9.90;4.28;;;11.20;84.90;;;;;;5048945;28;20025;-75
2022/02/11 07:49:18;;;;;;;11.43;4.22;;;11.10;85.40;;;;;;5047247;28;20786;-75
2022/02/11 07:51:44;;;;;;;12.27;4.35;;;11.20;85.50;;;;;;5048195;28;20037;-75
2022/02/11 07:54:09;;;;;;;15.48;4.85;;;11.20;85.70;;;;;;5047059;28;20116;-75
2022/02/11 07:56:35;;;;;;;11.40;4.30;;;11.30;85.90;;;;;;5046547;28;20028;-75
2022/02/11 07:59:00;;;;;;;11.52;4.10;;;11.30;86.00;;;;;;5046470;28;20029;-75
2022/02/11 08:01:26;;;;;;;10.77;3.92;;;11.30;86.30;;;;;;5046493;28;20402;-75
2022/02/11 08:03:51;;;;;;;10.55;3.85;;;11.30;86.80;;;;;;5052020;28;20033;-75
2022/02/11 08:06:17;;;;;;;8.70;4.18;;;11.40;87.10;;;;;;5049841;28;20025;-74
2022/02/11 08:08:43;;;;;;;10.52;3.90;;;11.40;87.50;;;;;;5050515;28;20395;-76
2022/02/11 08:11:09;;;;;;;9.63;3.85;;;11.50;88.10;;;;;;5051511;28;20021;-75
2022/02/11 08:13:36;;;;;;;9.45;4.00;;;11.50;88.30;;;;;;5050420;28;20054;-74
2022/02/11 08:16:03;;;;;;;8.45;4.22;;;11.60;88.30;;;;;;5050187;28;20155;-74
2022/02/11 08:18:28;;;;;;;12.40;3.92;;;11.60;88.30;;;;;;5049997;28;20032;-75
2022/02/11 08:20:54;;;;;;;9.20;4.30;;;11.60;88.70;;;;;;5051061;28;20037;-75
2022/02/11 08:23:20;;;;;;;8.88;3.95;;;11.60;90.00;;;;;;5050680;28;20029;-76
2022/02/11 08:25:45;;;;;;;9.75;3.55;;;11.70;90.20;;;;;;5051601;28;20488;-75
2022/02/11 08:28:11;;;;;;;10.95;3.92;;;11.80;90.60;;;;;;5051041;28;20025;-77
2022/02/11 08:30:38;;;;;;;11.10;3.60;;;11.90;90.90;;;;;;5050129;28;20110;-75
2022/02/11 08:33:04;;;;;;;11.68;3.85;;;12.00;91.30;;;;;;5049525;28;20489;-74
2022/02/11 08:35:30;;;;;;;8.85;3.38;;;12.10;91.60;;;;;;5053147;28;20040;-81
2022/02/11 08:37:55;;;;;;;8.73;3.58;;;12.10;91.60;;;;;;5052906;28;20029;-74
2022/02/11 08:40:21;;;;;;;9.25;3.45;;;12.20;92.20;;;;;;5049635;28;20444;-75
2022/02/11 08:42:48;;;;;;;9.38;3.38;;;12.20;92.50;;;;;;5049848;28;20028;-74
2022/02/11 08:45:14;;;;;;;17.17;3.30;;;12.30;92.40;;;;;;5049601;28;20071;-77
2022/02/11 08:47:39;;;;;;;14.07;3.75;;;12.30;92.40;;;;;;5049507;28;20395;-75
2022/02/11 08:50:06;;;;;;;13.45;4.10;;;12.40;92.90;;;;;;5050533;28;20021;-75
2022/02/11 08:52:32;;;;;;;12.52;3.60;;;12.40;93.30;;;;;;5051118;28;20104;-76
2022/02/11 08:54:58;;;;;;;11.85;3.03;;;12.50;93.10;;;;;;5050765;28;20104;-81
2022/02/11 08:57:24;;;;;;;25.67;4.43;;;12.50;93.60;;;;;;5045255;28;20526;-76
2022/02/11 08:59:49;;;;;;;23.70;3.40;;;12.50;92.70;;;;;;5029739;28;20029;-76
2022/02/11 09:02:17;;;;;;;16.95;3.03;;;12.40;92.40;;;;;;5030862;28;20033;-75
2022/02/11 09:04:42;;;;;;;13.35;2.50;;;12.40;92.20;;;;;;5050847;28;20021;-76
2022/02/11 09:07:08;;;;;;;15.45;3.30;;;12.40;91.90;;;;;;5032613;28;20029;-75
2022/02/11 09:09:34;;;;;;;15.85;2.40;;;12.50;92.00;;;;;;5032319;28;20021;-76
2022/02/11 09:12:00;;;;;;;15.25;2.97;;;12.50;91.70;;;;;;5032551;28;20116;-75
2022/02/11 09:14:26;;;;;;;17.48;2.40;;;12.50;92.00;;;;;;5032873;28;20119;-75
2022/02/11 09:16:52;;;;;;;14.93;2.35;;;12.50;92.10;;;;;;5066696;28;20075;-76
2022/02/11 09:19:17;;;;;;;7.22;1.98;;;12.50;92.20;;;;;;5070099;28;20064;-76
2022/02/11 09:21:43;;;;;;;9.38;2.03;;;12.60;92.00;;;;;;5070130;28;20056;-76
2022/02/11 09:24:09;;;;;;;11.68;2.58;;;12.50;92.10;;;;;;5052157;28;20033;-76
2022/02/11 09:26:34;;;;;;;14.20;2.30;;;12.60;92.30;;;;;;5069597;28;20108;-76
2022/02/11 09:29:04;;;;;;;12.07;1.92;;;12.60;92.30;;;;;;5051266;28;20475;-76
2022/02/11 09:31:30;;;;;;;8.07;2.03;;;12.70;92.40;;;;;;5028635;28;20053;-77
2022/02/11 09:34:04;;;;;;;10.85;2.08;;;12.70;92.60;;;;;;5011730;28;20569;-78
2022/02/11 09:36:39;;;;;;;11.70;2.08;;;12.70;92.50;;;;;;5011717;28;20037;-76
2022/02/11 09:39:08;;;;;;;11.57;1.83;;;12.80;92.60;;;;;;5029792;28;20029;-76
2022/02/11 09:41:35;;;;;;;12.40;2.72;;;12.80;92.40;;;;;;5029355;28;20068;-76
2022/02/11 09:44:02;;;;;;;10.52;2.08;;;12.80;92.80;;;;;;5028309;28;20033;-77
2022/02/11 09:46:29;;;;;;;12.77;2.20;;;12.80;92.70;;;;;;5011290;28;20037;-76
2022/02/11 09:48:55;;;;;;;12.25;2.30;;;12.80;92.40;;;;;;5028210;28;20404;-78
2022/02/11 09:51:21;;;;;;;12.00;2.25;;;12.80;92.90;;;;;;5029337;28;20033;-76
2022/02/11 09:53:46;;;;;;;9.88;2.10;;;12.80;92.60;;;;;;5011839;28;20029;-76
2022/02/11 09:56:12;;;;;;;9.27;2.45;;;12.90;92.60;;;;;;5012990;28;20124;-77
2022/02/11 09:58:37;;;;;;;16.63;2.58;;;12.90;92.90;;;;;;5030124;28;20061;-79
2022/02/11 10:01:03;;;;;;;9.75;2.05;;;13.00;92.50;;;;;;5028461;28;20084;-77
2022/02/11 10:03:30;;;;;;;9.68;2.00;;;13.00;92.40;;;;;;5028450;28;20032;-77
2022/02/11 10:06:02;;;;;;;16.38;2.53;;;13.10;92.80;;;;;;5028454;28;20453;-76
2022/02/11 10:08:32;;;;;;;11.63;2.58;;;13.10;92.60;;;;;;5029105;28;20056;-77
2022/02/11 10:10:59;;;;;;;11.82;2.40;;;13.20;92.70;;;;;;5028065;28;20029;-76
2022/02/11 10:13:31;;;;;;;9.13;2.05;;;13.20;92.30;;;;;;5028259;28;20530;-75
2022/02/11 10:16:02;;;;;;;13.40;2.53;;;13.30;92.00;;;;;;5028603;28;20052;-76
2022/02/11 10:18:31;;;;;;;8.20;1.73;;;13.40;91.90;;;;;;5028779;28;20049;-76
2022/02/11 10:21:00;;;;;;;7.32;1.70;;;13.40;91.50;;;;;;5028107;28;20021;-78
2022/02/11 10:23:31;;;;;;;7.45;1.85;;;13.50;91.10;;;;;;5029376;28;20029;-77
2022/02/11 10:26:14;;;;;;;10.32;1.55;;;13.60;91.00;;;;;;5012290;28;20108;-77
2022/02/11 10:28:44;;;;;;;8.88;1.80;;;13.50;90.70;;;;;;5029252;28;20513;-77
2022/02/11 10:31:11;;;;;;;9.30;1.60;;;13.50;90.40;;;;;;5012861;28;20056;-77
2022/02/11 10:33:54;;;;;;;7.25;1.77;;;13.50;90.10;;;;;;5030407;28;20029;-78
2022/02/11 10:36:33;;;;;;;9.23;1.23;;;13.50;89.50;;;;;;5029624;28;20029;-78
2022/02/11 10:39:20;;;;;;;6.55;1.30;;;13.50;88.90;;;;;;5029108;28;20029;-78
2022/02/11 10:41:49;;;;;;;7.25;1.75;;;13.50;88.20;;;;;;5012247;28;20441;-78
2022/02/11 10:44:17;;;;;;;9.18;1.80;;;13.50;87.70;;;;;;5029053;28;20446;-77
2022/02/11 10:46:48;;;;;;;6.22;1.35;;;13.60;87.50;;;;;;5029745;28;20030;-78
2022/02/11 10:49:16;;;;;;;6.05;1.10;;;13.60;87.20;;;;;;5030374;28;20765;-77
2022/02/11 10:51:44;;;;;;;5.30;1.10;;;13.60;86.90;;;;;;5028587;28;20050;-78
2022/02/11 10:54:26;;;;;;;3.78;0.90;;;13.60;86.70;;;;;;5029016;28;20029;-77
2022/02/11 10:56:54;;;;;;;5.45;1.60;;;13.60;86.30;;;;;;5030424;28;20025;-78
2022/02/11 10:59:28;;;;;;;5.40;1.20;;;13.60;85.90;;;;;;5012491;28;20029;-78
2022/02/11 11:01:55;;;;;;;3.67;1.13;;;13.60;85.60;;;;;;5029224;28;20044;-77
2022/02/11 11:04:21;;;;;;;4.55;1.20;;;13.60;85.10;;;;;;5013142;28;20098;-77
2022/02/11 11:06:47;;;;;;;3.63;1.00;;;13.60;84.90;;;;;;5029609;28;20033;-78
2022/02/11 11:09:16;;;;;;;3.53;0.88;;;13.60;84.80;;;;;;5031723;28;20032;-82
2022/02/11 11:11:44;;;;;;;8.57;0.98;;;13.60;84.50;;;;;;5026193;28;20021;-78
2022/02/11 11:14:13;;;;;;;6.40;0.98;;;13.60;84.20;;;;;;5032000;28;20398;-76
2022/02/11 11:16:40;;;;;;;7.35;1.42;;;13.70;84.00;;;;;;5039428;28;21425;-78
2022/02/11 11:19:06;;;;;;;8.82;1.70;;;13.70;83.90;;;;;;5053357;28;20029;-79
2022/02/11 11:21:38;;;;;;;4.53;1.10;;;13.70;83.40;;;;;;5048584;28;20033;-78
2022/02/11 11:24:04;;;;;;;;;;;13.70;83.20;;;;;;5049192;28;20485;-80
2022/02/11 11:26:40;;;;;;;8.68;1.45;;;13.70;83.20;;;;;;5048370;28;19948;-77
2022/02/11 11:29:18;;;;;;;4.93;0.90;;;13.70;83.50;;;;;;5030406;28;20033;-78
2022/02/11 11:31:59;;;;;;;4.75;1.02;;;13.80;82.40;;;;;;5030511;28;20041;-78
2022/02/11 11:34:29;;;;;;;6.90;1.27;;;13.80;82.10;;;;;;5030910;28;20031;-78
2022/02/11 11:37:02;;;;;;;2.45;0.88;;;13.90;82.00;;;;;;5030988;28;20033;-77
2022/02/11 11:39:28;;;;;;;6.22;0.90;;;13.90;81.70;;;;;;5034255;28;20028;-78
2022/02/11 11:42:09;;;;;;;3.25;1.02;;;13.90;81.20;;;;;;5051738;28;20033;-77
2022/02/11 11:44:56;;;;;;;1.60;0.70;;;14.00;81.00;;;;;;5035143;28;20017;-78
2022/02/11 11:47:33;;;;;;;3.20;0.73;;;14.10;80.50;;;;;;5051754;28;20050;-76
2022/02/11 11:49:59;;;;;;;4.15;1.02;;;14.10;80.30;;;;;;5051104;28;20052;-79
2022/02/11 11:52:40;;;;;;;2.70;0.70;;;14.10;80.10;;;;;;5033441;28;20057;-76
2022/02/11 11:55:17;;;;;;;4.60;0.93;;;14.10;79.80;;;;;;5033269;28;20052;-77
2022/02/11 11:57:43;;;;;;;1.90;0.65;;;14.20;79.60;;;;;;5033521;28;20033;-76
2022/02/11 12:00:09;;;;;;;3.17;0.90;;;14.20;79.50;;;;;;5050196;28;20025;-77
2022/02/11 12:02:36;;;;;;;5.45;0.80;;;14.20;79.40;;;;;;5050323;28;20029;-77
2022/02/11 12:05:03;;;;;;;2.65;0.80;;;14.20;79.30;;;;;;5032610;28;20090;-77
2022/02/11 12:07:31;;;;;;;5.35;0.90;;;14.30;79.30;;;;;;5060775;28;20020;-77
2022/02/11 12:09:58;;;;;;;2.40;0.70;;;14.10;79.10;;;;;;5052800;28;20476;-77
2022/02/11 12:12:32;;;;;;;3.28;0.80;;;14.20;79.10;;;;;;5052417;28;20560;-76
2022/02/11 12:14:59;;;;;;;2.88;0.80;;;14.20;79.00;;;;;;5070425;28;20112;-77
2022/02/11 12:17:26;;;;;;;3.97;1.00;;;14.20;78.90;;;;;;5052927;28;20037;-78
2022/02/11 12:19:53;;;;;;;3.08;0.93;;;14.20;79.10;;;;;;5098266;22;20117;-76
2022/02/11 12:22:21;;;;;;;3.55;1.08;;;14.20;79.00;;;;;;5057557;28;20075;-76
2022/02/11 12:27:35;;;;;;;3.42;0.80;;;14.00;79.40;;;;;;5075717;28;20031;-76
2022/02/11 12:30:08;;;;;;;4.30;0.95;;;14.00;79.90;;;;;;5075012;28;20032;-76
2022/02/11 12:32:45;;;;;;;3.75;1.10;;;13.90;79.90;;;;;;5075263;28;20441;-76
2022/02/11 12:35:13;;;;;;;4.95;0.90;;;13.90;80.30;;;;;;5057048;28;20025;-76
2022/02/11 12:37:41;;;;;;;2.88;0.80;;;13.80;80.30;;;;;;5057361;28;20032;-76
2022/02/11 12:40:24;;;;;;;4.00;0.90;;;13.80;80.60;;;;;;5056864;28;20095;-77
2022/02/11 12:42:52;;;;;;;4.65;1.15;;;13.80;80.70;;;;;;5075022;28;20020;-76
2022/02/11 12:45:38;;;;;;;4.45;0.90;;;13.80;80.70;;;;;;5057194;28;20097;-76
2022/02/11 12:48:09;;;;;;;3.47;1.15;;;13.80;80.60;;;;;;5056524;28;20021;-77
2022/02/11 12:50:38;;;;;;;4.85;1.00;;;13.70;81.10;;;;;;5056974;28;20028;-77
2022/02/11 12:53:06;;;;;;;4.53;1.00;;;13.70;80.70;;;;;;5057166;28;20442;-77
2022/02/11 12:55:36;;;;;;;4.15;1.00;;;13.70;81.20;;;;;;5074955;28;20028;-77
2022/02/11 12:58:03;;;;;;;6.85;1.10;;;13.70;80.60;;;;;;5074959;28;20024;-77
2022/02/11 13:00:31;;;;;;;4.25;1.10;;;13.60;80.40;;;;;;5056824;28;20033;-77
2022/02/11 13:03:00;;;;;;;3.85;0.82;;;13.60;80.30;;;;;;5056769;28;20055;-77
2022/02/11 13:05:27;;;;;;;3.25;0.80;;;13.60;80.50;;;;;;5056913;28;20062;-77
2022/02/11 13:07:55;;;;;;;2.55;0.95;;;13.70;80.40;;;;;;5057067;28;20024;-77
2022/02/11 13:10:25;;;;;;;4.65;0.90;;;13.70;80.60;;;;;;5056640;28;20028;-77
2022/02/11 13:12:57;;;;;;;3.45;0.70;;;13.60;80.50;;;;;;5056612;28;20027;-77
2022/02/11 13:15:28;;;;;;;;;;;13.60;80.30;;;;;;5057161;28;20028;-76
2022/02/11 13:17:55;;;;;;;5.88;0.90;;;13.60;80.20;;;;;;5056653;28;19931;-76
2022/02/11 13:20:27;;;;;;;4.75;1.13;;;13.60;80.20;;;;;;5056368;28;20131;-77
2022/02/11 13:22:53;;;;;;;6.45;1.15;;;13.60;80.10;;;;;;5056468;28;20025;-76
2022/02/11 13:25:19;;;;;;;6.32;0.93;;;13.60;80.10;;;;;;5074187;28;20028;-76
2022/02/11 13:28:10;;;;;;;5.55;0.90;;;13.60;80.00;;;;;;5056578;28;20128;-77
2022/02/11 13:30:38;;;;;;;5.55;0.85;;;13.60;79.90;;;;;;5054793;28;20107;-76
2022/02/11 13:33:23;;;;;;;7.25;1.27;;;13.60;79.80;;;;;;5036067;28;20059;-77
2022/02/11 13:35:50;;;;;;;8.07;1.30;;;13.80;78.70;;;;;;5052768;28;20025;-76
2022/02/11 13:38:28;;;;;;;10.52;1.38;;;13.90;77.40;;;;;;5036120;28;20089;-76
2022/02/11 13:41:07;;;;;;;7.47;0.93;;;14.00;76.60;;;;;;5052504;28;20486;-76
2022/02/11 13:43:55;;;;;;;7.30;1.30;;;14.00;75.80;;;;;;5054095;28;20025;-78
2022/02/11 13:46:31;;;;;;;4.45;0.85;;;14.10;75.50;;;;;;5057739;28;20027;-77
2022/02/11 13:49:02;;;;;;;11.55;1.63;;;14.10;76.60;;;;;;5055526;28;20028;-76
2022/02/11 13:51:28;;;;;;;23.48;2.60;;;14.10;76.40;;;;;;5055941;28;20397;-76
2022/02/11 13:53:54;;;;;;;26.27;2.95;;;14.10;79.60;;;;;;5073911;28;20024;-77
2022/02/11 13:56:41;;;;;;;30.60;3.00;;;14.10;79.80;;;;;;5055155;28;20024;-76
2022/02/11 13:59:11;;;;;;;12.52;1.70;;;14.10;79.30;;;;;;5034408;28;20036;-76
2022/02/11 14:01:41;;;;;;;21.40;1.92;;;14.10;79.90;;;;;;5035594;28;20036;-76
2022/02/11 14:04:09;;;;;;;13.20;1.98;;;14.00;79.80;;;;;;5073442;28;20124;-76
2022/02/11 14:06:36;;;;;;;13.45;1.70;;;14.10;79.40;;;;;;5073440;28;20025;-76
2022/02/11 14:09:24;;;;;;;13.30;1.58;;;14.10;78.80;;;;;;5055810;28;20401;-76
2022/02/11 14:11:50;;;;;;;14.85;2.13;;;14.10;79.50;;;;;;5053579;28;20545;-76
2022/02/11 14:14:21;;;;;;;7.60;1.20;;;14.10;80.00;;;;;;5035914;28;20167;-76
2022/02/11 14:16:47;;;;;;;8.63;1.60;;;14.10;80.20;;;;;;5035827;28;20081;-76
2022/02/11 14:19:24;;;;;;;7.97;1.25;;;14.10;80.80;;;;;;5038587;28;20538;-76
2022/02/11 14:21:55;;;;;;;10.38;1.85;;;14.10;81.30;;;;;;5055238;28;20060;-76
2022/02/11 14:24:22;;;;;;;8.93;1.42;;;14.20;82.90;;;;;;5048898;28;20020;-76
2022/02/11 14:26:49;;;;;;;7.68;1.67;;;14.20;84.00;;;;;;5055481;28;20024;-76
2022/02/11 14:29:15;;;;;;;14.68;1.63;;;14.30;84.20;;;;;;5055239;28;20494;-76
2022/02/11 14:31:42;;;;;;;7.63;1.27;;;14.20;84.80;;;;;;5055260;28;20051;-76
2022/02/11 14:34:09;;;;;;;11.27;1.67;;;14.30;85.00;;;;;;5055463;28;20024;-76
2022/02/11 14:36:37;;;;;;;10.30;1.60;;;14.40;85.50;;;;;;5055524;28;20113;-75
2022/02/11 14:39:07;;;;;;;7.25;1.50;;;14.40;86.30;;;;;;5072842;28;20029;-76
2022/02/11 14:41:47;;;;;;;7.72;1.50;;;14.40;86.70;;;;;;5055420;28;20036;-75
2022/02/11 14:44:14;;;;;;;8.77;1.38;;;14.40;87.20;;;;;;5065901;28;20032;-76
2022/02/11 14:46:40;;;;;;;9.27;1.58;;;14.50;87.40;;;;;;5072979;28;20052;-76
2022/02/11 14:49:05;;;;;;;7.53;1.48;;;14.40;87.60;;;;;;5072664;28;20105;-75
2022/02/11 14:51:34;;;;;;;7.72;1.30;;;14.50;87.80;;;;;;5073187;28;20046;-75
2022/02/11 14:54:05;;;;;;;9.23;1.80;;;14.50;88.00;;;;;;5072909;28;20029;-76
2022/02/11 14:56:31;;;;;;;7.05;1.75;;;14.50;88.30;;;;;;5072533;28;20078;-75
2022/02/11 14:58:57;;;;;;;9.10;1.60;;;14.50;88.50;;;;;;5054576;28;20025;-77
2022/02/11 15:01:23;;;;;;;6.72;1.50;;;14.50;88.50;;;;;;5054704;28;20116;-76
2022/02/11 15:03:49;;;;;;;13.23;1.95;;;14.60;88.80;;;;;;5054959;28;20143;-76
2022/02/11 15:06:14;;;;;;;9.18;1.60;;;14.60;88.90;;;;;;5072893;28;20456;-76
2022/02/11 15:08:40;;;;;;;10.90;2.08;;;14.60;88.90;;;;;;5072696;28;20082;-76
2022/02/11 15:11:06;;;;;;;10.50;1.90;;;14.60;89.20;;;;;;5055679;28;20025;-76
2022/02/11 15:13:31;;;;;;;10.45;2.45;;;14.60;89.10;;;;;;5058606;28;20025;-75
2022/02/11 15:15:57;;;;;;;14.80;2.75;;;14.60;89.10;;;;;;5058619;28;20025;-77
2022/02/11 15:18:23;;;;;;;13.02;2.00;;;14.60;88.90;;;;;;5076510;28;20024;-76
2022/02/11 15:20:48;;;;;;;13.00;2.17;;;14.60;88.90;;;;;;5058195;28;20024;-77
2022/02/11 15:23:14;;;;;;;13.57;2.05;;;14.70;88.80;;;;;;5058536;28;20037;-77
2022/02/11 15:25:39;;;;;;;14.90;2.42;;;14.70;88.80;;;;;;5050159;28;20021;-77
2022/02/11 15:28:05;;;;;;;13.93;2.55;;;14.70;88.40;;;;;;5056091;28;20031;-76
2022/02/11 15:30:33;;;;;;;14.68;2.70;;;14.70;88.20;;;;;;5075846;28;20541;-77
2022/02/11 15:32:59;;;;;;;15.52;2.45;;;14.80;88.50;;;;;;5076164;28;20025;-77
2022/02/11 15:35:25;;;;;;;15.02;2.72;;;14.70;88.20;;;;;;5058210;28;20035;-76
2022/02/11 15:37:52;;;;;;;19.63;3.58;;;14.80;87.70;;;;;;5058236;28;20021;-77
2022/02/11 15:40:18;;;;;;;16.27;2.65;;;14.80;87.60;;;;;;5057931;28;20489;-76
2022/02/11 15:42:44;;;;;;;15.55;2.40;;;14.80;87.30;;;;;;5058345;28;20032;-76
2022/02/11 15:45:09;;;;;;;13.75;2.40;;;14.80;87.20;;;;;;5075890;28;20430;-78
2022/02/11 15:47:35;;;;;;;14.98;2.70;;;14.80;86.60;;;;;;5075982;28;20078;-77
2022/02/11 15:50:01;;;;;;;18.35;2.83;;;14.90;86.50;;;;;;5057811;28;20455;-77
2022/02/11 15:52:26;;;;;;;19.88;2.97;;;14.90;86.40;;;;;;5075889;28;20093;-77
2022/02/11 15:54:52;;;;;;;13.90;2.25;;;14.80;86.10;;;;;;5075826;28;20021;-77
2022/02/11 15:57:19;;;;;;;10.75;2.10;;;14.70;85.40;;;;;;5057762;28;20443;-77
2022/02/11 15:59:45;;;;;;;13.35;1.98;;;14.70;84.90;;;;;;5057557;28;20036;-76
2022/02/11 16:02:11;;;;;;;10.05;2.15;;;14.70;84.60;;;;;;5075627;28;20397;-77
2022/02/11 16:04:36;;;;;;;13.95;2.20;;;14.70;84.10;;;;;;5057605;28;20470;-77
2022/02/11 16:07:02;;;;;;;12.52;2.42;;;14.70;83.60;;;;;;5057630;28;20027;-76
2022/02/11 16:09:28;;;;;;;14.23;2.20;;;14.60;83.40;;;;;;5057390;28;20029;-77
2022/02/11 16:11:57;;;;;;;18.05;2.75;;;14.60;83.10;;;;;;5075371;28;20029;-76
2022/02/11 16:14:26;;;;;;;27.33;3.13;;;14.60;82.70;;;;;;5044091;28;20025;-77
2022/02/11 16:16:52;;;;;;;17.52;2.30;;;14.70;81.80;;;;;;5037658;28;20575;-76